Time;durP1;ratioP1;P1;durP2;ratioP2;P2;SDS_P1;SDS_P2;PMS_P1;PMS_P2;Temp;Humidity;BMP_temperature;BMP_pressure;BME280_temperature;BME280_humidity;BME280_pressure;Samples;Min_cycle;Max_cycle;Signal;HPM_P1;HPM_P2
2024/01/18 00:00:38;;;;;;;1.00;0.90;;;11.40;76.40;;;6.98;100.00;93152.75;4979849;28;20029;-53
2024/01/18 00:03:04;;;;;;;1.38;0.90;;;11.40;76.30;;;6.95;100.00;93156.78;4975282;28;20066;-55
2024/01/18 00:05:30;;;;;;;1.17;0.98;;;11.40;76.30;;;6.91;100.00;93153.19;4972753;28;20105;-56
2024/01/18 00:07:56;;;;;;;2.55;1.00;;;11.40;76.30;;;6.91;100.00;93153.19;4975237;28;20049;-55
2024/01/18 00:10:27;;;;;;;1.88;1.10;;;11.40;76.30;;;6.92;100.00;93151.31;4979899;28;20644;-54
2024/01/18 00:12:54;;;;;;;1.00;0.90;;;11.40;76.30;;;6.88;100.00;93153.78;4974412;28;20044;-53
2024/01/18 00:15:21;;;;;;;3.30;0.80;;;11.40;76.30;;;6.88;100.00;93153.78;4974356;28;20050;-55
2024/01/18 00:17:48;;;;;;;1.25;0.88;;;11.40;76.40;;;6.88;100.00;93155.66;4973271;28;20038;-54
2024/01/18 00:20:14;;;;;;;0.80;0.80;;;11.40;76.40;;;6.88;100.00;93159.06;4967251;28;20172;-56
2024/01/18 00:22:40;;;;;;;1.30;0.80;;;11.40;76.40;;;6.84;100.00;93157.34;4979683;28;20438;-56
2024/01/18 00:25:07;;;;;;;1.05;0.80;;;11.40;76.30;;;6.84;100.00;93152.81;4973947;28;20061;-52
2024/01/18 00:27:33;;;;;;;0.90;0.50;;;11.40;76.40;;;6.86;100.00;93153.31;4972877;28;20034;-54
2024/01/18 00:29:59;;;;;;;0.47;0.47;;;11.40;76.40;;;6.88;100.00;93145.06;4973929;28;20029;-56
2024/01/18 00:32:25;;;;;;;0.50;0.50;;;11.40;76.40;;;6.93;100.00;93156.31;4974109;28;20030;-56
2024/01/18 00:34:51;;;;;;;0.65;0.50;;;11.40;76.40;;;6.99;100.00;93149.06;4974482;28;20424;-56
2024/01/18 00:37:18;;;;;;;0.40;0.40;;;11.40;76.40;;;7.01;100.00;93156.69;4972780;28;20081;-54
2024/01/18 00:39:44;;;;;;;0.38;0.38;;;11.40;76.40;;;7.04;100.00;93156.84;4980037;28;20029;-54
2024/01/18 00:42:10;;;;;;;0.38;0.38;;;11.40;76.40;;;7.05;100.00;93153.16;4972992;28;20030;-51
2024/01/18 00:44:36;;;;;;;0.30;0.30;;;11.50;76.40;;;7.10;100.00;93152.22;4984414;28;20471;-49
2024/01/18 00:47:02;;;;;;;0.40;0.40;;;11.50;76.30;;;7.11;100.00;93157.25;4973980;28;20133;-55
2024/01/18 00:49:29;;;;;;;0.40;0.40;;;11.50;76.20;;;7.11;100.00;93156.44;4972469;28;20024;-57
2024/01/18 00:51:55;;;;;;;1.65;0.40;;;11.50;76.10;;;7.12;100.00;93158.00;4971775;28;20030;-55
2024/01/18 00:54:20;;;;;;;0.40;0.40;;;11.50;76.10;;;7.14;100.00;93156.59;4983345;28;20017;-56
2024/01/18 00:56:46;;;;;;;0.45;0.45;;;11.60;76.10;;;7.15;100.00;93149.47;4978758;28;20137;-51
2024/01/18 00:59:12;;;;;;;0.38;0.38;;;11.60;76.00;;;7.16;100.00;93149.16;4970902;28;20026;-55
2024/01/18 01:01:38;;;;;;;1.63;0.40;;;11.60;75.90;;;7.11;100.00;93153.78;4972903;28;20029;-54
2024/01/18 01:04:04;;;;;;;0.40;0.40;;;11.60;75.80;;;7.11;100.00;93151.94;4973611;28;20022;-55
2024/01/18 01:06:30;;;;;;;0.50;0.50;;;11.60;75.70;;;7.10;100.00;93153.00;4970626;28;20040;-55
2024/01/18 01:08:56;;;;;;;0.60;0.60;;;11.60;75.60;;;7.12;100.00;93150.84;4973383;28;20037;-56
2024/01/18 01:11:22;;;;;;;0.60;0.60;;;11.60;75.60;;;7.16;100.00;93143.09;4973148;28;20030;-55
2024/01/18 01:13:51;;;;;;;0.40;0.40;;;11.60;75.50;;;7.16;100.00;93148.38;4973179;28;20030;-55
2024/01/18 01:16:16;;;;;;;0.40;0.40;;;11.60;75.50;;;7.17;100.00;93142.00;4973597;28;20116;-54
2024/01/18 01:18:42;;;;;;;3.53;0.73;;;11.70;75.40;;;7.16;100.00;93143.84;4972462;28;20058;-55
2024/01/18 01:21:08;;;;;;;1.77;1.10;;;11.70;75.30;;;7.19;100.00;93143.25;4973712;28;20105;-52
2024/01/18 01:23:39;;;;;;;0.90;0.60;;;11.70;75.30;;;7.21;100.00;93152.75;4972505;28;20026;-54
2024/01/18 01:26:04;;;;;;;0.50;0.50;;;11.70;75.20;;;7.21;100.00;93156.22;4972096;28;20041;-53
2024/01/18 01:28:30;;;;;;;1.05;0.40;;;11.70;75.20;;;7.22;100.00;93151.69;4973011;28;20026;-50
2024/01/18 01:30:56;;;;;;;1.65;0.43;;;11.70;75.10;;;7.27;100.00;93157.66;4975537;28;20439;-50
2024/01/18 01:33:22;;;;;;;0.30;0.30;;;11.80;75.00;;;7.18;100.00;93154.94;4970306;28;20026;-57
2024/01/18 01:35:47;;;;;;;0.63;0.40;;;11.80;75.00;;;7.24;100.00;93152.16;4972990;28;20073;-56
2024/01/18 01:38:13;;;;;;;0.40;0.40;;;11.80;75.00;;;7.28;100.00;93159.19;4980014;28;20029;-57
2024/01/18 01:40:39;;;;;;;1.63;0.47;;;11.80;74.90;;;7.30;100.00;93157.03;4967442;28;20049;-55
2024/01/18 01:43:05;;;;;;;0.98;0.50;;;11.80;74.80;;;7.30;100.00;93154.41;4979226;28;20030;-54
2024/01/18 01:45:31;;;;;;;0.40;0.30;;;11.90;74.70;;;7.28;100.00;93161.06;4972610;28;20049;-56
2024/01/18 01:47:58;;;;;;;0.40;0.40;;;11.80;74.60;;;7.27;100.00;93172.72;4969732;28;20053;-51
2024/01/18 01:50:24;;;;;;;0.40;0.40;;;11.90;74.60;;;7.26;100.00;93168.53;4972318;28;20138;-55
2024/01/18 01:52:50;;;;;;;0.50;0.50;;;11.80;74.50;;;7.25;100.00;93161.69;4973541;28;20061;-56
2024/01/18 01:55:17;;;;;;;0.55;0.45;;;11.80;74.40;;;7.22;100.00;93156.97;4971506;28;20112;-52
2024/01/18 01:57:47;;;;;;;0.50;0.40;;;11.80;74.40;;;7.25;100.00;93166.97;4975656;28;20046;-55
2024/01/18 02:00:15;;;;;;;0.45;0.40;;;11.80;74.40;;;7.23;100.00;93164.59;4977035;28;20057;-54
2024/01/18 02:02:43;;;;;;;0.35;0.35;;;11.80;74.40;;;7.26;100.00;93165.88;4972468;28;20116;-56
2024/01/18 02:05:11;;;;;;;0.38;0.38;;;11.90;74.40;;;7.27;100.00;93155.00;4974062;28;20026;-55
2024/01/18 02:07:38;;;;;;;0.52;0.40;;;11.80;74.30;;;7.22;100.00;93157.75;4977130;28;20491;-55
2024/01/18 02:10:06;;;;;;;0.40;0.35;;;11.80;74.30;;;7.20;100.00;93154.63;4972638;28;20034;-56
2024/01/18 02:12:33;;;;;;;0.40;0.40;;;11.80;74.20;;;7.27;100.00;93154.19;4972244;28;20499;-54
2024/01/18 02:14:59;;;;;;;0.88;0.40;;;11.80;74.30;;;7.29;100.00;93147.50;4976542;28;20052;-49
2024/01/18 02:17:25;;;;;;;0.45;0.45;;;11.90;74.30;;;7.34;100.00;93147.41;4972004;28;20026;-49
2024/01/18 02:19:51;;;;;;;0.40;0.40;;;11.90;74.20;;;7.34;100.00;93146.63;4971363;28;20026;-50
2024/01/18 02:22:22;;;;;;;0.77;0.38;;;11.90;74.20;;;7.42;100.00;93145.88;4973379;28;20022;-56
2024/01/18 02:25:01;;;;;;;0.30;0.30;;;12.00;74.10;;;7.47;100.00;93142.34;4970924;28;20022;-53
2024/01/18 02:27:27;;;;;;;0.52;0.50;;;12.00;74.00;;;7.51;100.00;93146.69;4971661;28;20084;-53
2024/01/18 02:29:52;;;;;;;1.80;0.30;;;12.00;73.90;;;7.54;100.00;93150.63;4977158;28;20440;-57
2024/01/18 02:32:18;;;;;;;0.47;0.30;;;12.00;73.80;;;7.58;100.00;93152.38;4972693;28;20034;-53
2024/01/18 02:34:44;;;;;;;1.65;0.30;;;12.10;73.70;;;7.60;100.00;93150.19;4964723;28;20019;-51
2024/01/18 02:37:12;;;;;;;0.30;0.30;;;12.10;73.50;;;7.62;100.00;93144.59;4954315;28;20026;-54
2024/01/18 02:39:38;;;;;;;1.00;0.30;;;12.10;73.30;;;7.61;100.00;93140.34;4972746;28;20495;-54
2024/01/18 02:42:05;;;;;;;0.30;0.30;;;12.20;73.30;;;7.60;100.00;93141.44;4971453;28;20025;-54
2024/01/18 02:44:32;;;;;;;0.30;0.30;;;12.20;73.10;;;7.61;100.00;93145.66;4975293;28;20109;-56
2024/01/18 02:46:58;;;;;;;0.65;0.43;;;12.20;73.00;;;7.60;100.00;93144.88;4971005;28;20030;-56
2024/01/18 02:49:24;;;;;;;0.45;0.30;;;12.20;72.90;;;7.61;100.00;93148.31;4975538;28;20018;-56
2024/01/18 02:51:50;;;;;;;0.40;0.40;;;12.20;72.70;;;7.62;100.00;93145.38;4977829;28;20376;-51
2024/01/18 02:54:15;;;;;;;0.90;0.43;;;12.20;72.70;;;7.62;100.00;93141.94;4971839;28;20026;-51
2024/01/18 02:56:41;;;;;;;0.30;0.30;;;12.20;72.50;;;7.64;100.00;93145.81;4972300;28;20036;-54
2024/01/18 02:59:07;;;;;;;0.30;0.30;;;12.20;72.50;;;7.62;100.00;93140.06;4982051;28;20022;-55
2024/01/18 03:01:33;;;;;;;1.05;0.30;;;12.20;72.40;;;7.58;100.00;93136.47;4954165;28;20439;-53
2024/01/18 03:03:59;;;;;;;0.35;0.35;;;12.20;72.40;;;7.62;100.00;93129.47;4972373;28;20026;-51
2024/01/18 03:06:25;;;;;;;0.43;0.40;;;12.20;72.30;;;7.63;100.00;93127.59;4971305;28;20026;-50
2024/01/18 03:08:50;;;;;;;1.45;0.32;;;12.20;72.30;;;7.59;100.00;93134.59;4973286;28;20037;-49
2024/01/18 03:11:16;;;;;;;1.48;0.30;;;12.20;72.20;;;7.53;100.00;93133.16;4972347;28;20025;-51
2024/01/18 03:13:42;;;;;;;1.15;0.50;;;12.20;72.10;;;7.50;100.00;93129.25;4976594;28;20527;-53
2024/01/18 03:16:08;;;;;;;0.47;0.40;;;12.20;72.10;;;7.45;100.00;93128.59;4969578;28;20026;-55
2024/01/18 03:18:35;;;;;;;0.30;0.30;;;12.20;72.00;;;7.38;100.00;93124.50;4971201;28;20084;-55
2024/01/18 03:21:06;;;;;;;0.70;0.63;;;12.20;72.00;;;7.33;100.00;93121.19;4971072;28;20026;-51
2024/01/18 03:23:31;;;;;;;0.35;0.35;;;12.10;71.80;;;7.25;100.00;93117.44;4974080;28;20049;-52
2024/01/18 03:25:57;;;;;;;0.30;0.30;;;12.10;71.90;;;7.21;100.00;93113.03;4973180;28;20076;-54
2024/01/18 03:28:23;;;;;;;0.57;0.40;;;12.00;71.80;;;7.12;100.00;93103.19;4977769;28;20033;-53
2024/01/18 03:30:49;;;;;;;0.40;0.40;;;12.00;71.80;;;7.09;100.00;93103.81;4977191;28;20022;-55
2024/01/18 03:33:15;;;;;;;0.85;0.40;;;11.90;71.80;;;7.07;100.00;93105.19;4972026;28;20122;-49
2024/01/18 03:35:42;;;;;;;0.50;0.40;;;11.90;71.90;;;7.02;100.00;93102.66;4971025;28;20080;-50
2024/01/18 03:38:08;;;;;;;0.55;0.40;;;11.90;72.00;;;6.97;100.00;93103.56;4971611;28;20502;-55
2024/01/18 03:40:37;;;;;;;1.65;0.40;;;11.80;72.00;;;6.94;100.00;93104.16;4973165;28;20030;-56
2024/01/18 03:43:04;;;;;;;0.30;0.30;;;11.80;72.00;;;6.90;100.00;93096.06;4970863;28;20030;-49
2024/01/18 03:45:31;;;;;;;0.40;0.40;;;11.70;72.00;;;6.87;100.00;93099.31;4971531;28;20424;-54
2024/01/18 03:47:57;;;;;;;0.47;0.40;;;11.70;72.00;;;6.79;100.00;93094.72;4968457;28;20042;-50
2024/01/18 03:50:22;;;;;;;0.40;0.40;;;11.70;72.10;;;6.79;100.00;93094.72;4970912;28;20040;-49
2024/01/18 03:52:48;;;;;;;0.40;0.40;;;11.70;72.10;;;6.75;100.00;93099.06;4971536;28;20021;-49
2024/01/18 03:55:14;;;;;;;0.50;0.50;;;11.60;72.20;;;6.74;100.00;93094.84;4972181;28;20049;-55
2024/01/18 03:57:40;;;;;;;0.50;0.40;;;11.60;72.30;;;6.72;100.00;93086.44;4971248;28;20049;-51
2024/01/18 04:00:09;;;;;;;0.40;0.40;;;11.60;72.30;;;6.68;100.00;93078.31;4973005;28;20103;-52
2024/01/18 04:02:35;;;;;;;0.30;0.30;;;11.50;72.30;;;6.69;100.00;93073.81;4976688;28;20052;-56
2024/01/18 04:05:01;;;;;;;0.40;0.40;;;11.50;72.30;;;6.66;100.00;93066.47;4969588;28;20019;-51
2024/01/18 04:07:27;;;;;;;0.40;0.40;;;11.50;72.30;;;6.65;100.00;93068.34;4970797;28;20126;-52
2024/01/18 04:09:53;;;;;;;0.40;0.40;;;11.50;72.30;;;6.64;100.00;93063.31;4972559;28;20077;-51
2024/01/18 04:12:19;;;;;;;0.40;0.40;;;11.40;72.30;;;6.63;100.00;93067.84;4975788;28;20110;-56
2024/01/18 04:14:45;;;;;;;0.40;0.40;;;11.50;72.50;;;6.62;100.00;93060.22;4969710;28;20022;-51
2024/01/18 04:17:12;;;;;;;0.50;0.50;;;11.40;72.40;;;6.58;100.00;93067.97;4971989;28;20445;-55
2024/01/18 04:19:39;;;;;;;0.47;0.40;;;11.40;72.40;;;6.57;100.00;93057.69;4971065;28;20109;-51
2024/01/18 04:22:06;;;;;;;0.55;0.55;;;11.40;72.40;;;6.54;100.00;93058.28;4973038;28;20458;-57
2024/01/18 04:24:33;;;;;;;0.68;0.50;;;11.40;72.40;;;6.51;100.00;93053.59;4967132;28;20497;-52
2024/01/18 04:26:59;;;;;;;1.23;0.60;;;11.40;72.40;;;6.47;100.00;93062.13;4969909;28;20077;-55
2024/01/18 04:29:27;;;;;;;0.52;0.43;;;11.30;72.40;;;6.41;100.00;93057.25;4973304;28;20071;-52
2024/01/18 04:31:53;;;;;;;0.40;0.40;;;11.30;72.60;;;6.45;100.00;93064.28;4979107;28;20064;-50
2024/01/18 04:34:19;;;;;;;0.95;0.50;;;11.20;72.60;;;6.47;100.00;93058.69;4974880;28;20457;-49
2024/01/18 04:36:45;;;;;;;0.70;0.60;;;11.20;72.70;;;6.41;100.00;93062.53;4973744;28;20037;-53
2024/01/18 04:39:11;;;;;;;0.65;0.52;;;11.20;72.70;;;6.48;100.00;93057.59;4974795;28;20022;-50
2024/01/18 04:41:37;;;;;;;1.10;0.60;;;11.20;72.90;;;6.50;100.00;93068.69;4978546;28;20053;-55
2024/01/18 04:44:03;;;;;;;0.43;0.43;;;11.20;73.00;;;6.52;100.00;93063.88;4974526;28;20109;-50
2024/01/18 04:46:30;;;;;;;1.85;0.60;;;11.10;72.80;;;6.47;100.00;93072.69;4974184;28;20072;-51
2024/01/18 04:48:56;;;;;;;0.82;0.70;;;11.10;72.80;;;6.43;100.00;93068.31;4956780;28;20136;-52
2024/01/18 04:51:22;;;;;;;0.80;0.80;;;11.10;72.90;;;6.38;100.00;93081.66;4980044;28;20105;-55
2024/01/18 04:53:49;;;;;;;2.40;0.90;;;11.10;72.90;;;6.32;100.00;93080.97;4974357;28;20061;-54
2024/01/18 04:56:16;;;;;;;0.70;0.70;;;11.10;72.90;;;6.26;100.00;93093.53;4972232;28;20018;-56
2024/01/18 04:58:42;;;;;;;0.63;0.63;;;11.00;72.80;;;6.30;100.00;93087.63;4974407;28;20037;-56
2024/01/18 05:01:09;;;;;;;1.33;0.70;;;11.00;72.90;;;6.28;100.00;93087.16;4961062;28;20482;-56
2024/01/18 05:03:35;;;;;;;0.80;0.80;;;11.00;73.00;;;6.27;100.00;93083.75;4979517;28;20411;-56
2024/01/18 05:06:00;;;;;;;2.08;0.90;;;11.00;73.00;;;6.24;100.00;93074.53;4973380;28;20018;-56
2024/01/18 05:08:26;;;;;;;2.00;0.90;;;11.00;73.00;;;6.20;100.00;93078.06;4979603;28;20045;-56
2024/01/18 05:10:53;;;;;;;1.95;1.02;;;11.00;72.90;;;6.15;100.00;93078.97;4974091;28;20030;-56
2024/01/18 05:13:21;;;;;;;2.95;0.95;;;10.90;72.80;;;6.08;100.00;93077.78;4972892;28;20018;-57
2024/01/18 05:15:47;;;;;;;1.05;0.88;;;10.90;72.80;;;6.06;100.00;93072.81;4973111;28;20056;-56
2024/01/18 05:18:16;;;;;;;1.20;1.10;;;10.90;72.80;;;6.03;100.00;93068.91;4973294;28;20053;-53
2024/01/18 05:20:42;;;;;;;1.20;1.10;;;10.90;72.80;;;6.02;100.00;93067.34;4974035;28;20027;-56
2024/01/18 05:23:07;;;;;;;1.55;1.25;;;10.90;72.90;;;6.00;100.00;93063.44;4971774;28;20065;-56
2024/01/18 05:25:33;;;;;;;1.30;1.20;;;10.80;72.90;;;6.01;100.00;93073.69;4973045;28;20030;-54
2024/01/18 05:28:00;;;;;;;2.65;1.90;;;10.80;73.00;;;6.00;100.00;93079.28;4972006;28;20026;-51
2024/01/18 05:30:26;;;;;;;1.95;1.35;;;10.80;73.00;;;6.01;100.00;93078.97;4965764;28;20060;-52
2024/01/18 05:32:53;;;;;;;1.42;1.33;;;10.90;73.10;;;6.05;100.00;93079.19;4973879;28;20064;-55
2024/01/18 05:35:19;;;;;;;3.45;1.77;;;10.80;73.10;;;6.05;100.00;93084.47;4975501;28;20029;-53
2024/01/18 05:37:45;;;;;;;3.25;1.90;;;10.80;73.10;;;6.05;100.00;93078.38;4971095;28;20018;-56
2024/01/18 05:40:11;;;;;;;4.45;2.85;;;10.80;73.20;;;6.06;100.00;93083.41;4972590;28;20033;-52
2024/01/18 05:42:38;;;;;;;2.47;1.67;;;10.80;73.20;;;6.07;100.00;93070.97;4974573;28;20054;-50
2024/01/18 05:45:06;;;;;;;3.67;1.60;;;10.80;73.30;;;6.08;100.00;93078.59;4988153;23;20049;-57
2024/01/18 05:47:32;;;;;;;3.42;1.98;;;10.80;73.50;;;6.09;100.00;93074.09;5004845;28;20037;-55
2024/01/18 05:49:58;;;;;;;2.10;1.90;;;10.70;73.40;;;6.08;100.00;93080.44;4997639;28;20021;-52
2024/01/18 05:52:24;;;;;;;1.98;1.45;;;10.80;73.60;;;6.05;100.00;93067.81;4984341;28;20030;-57
2024/01/18 05:54:50;;;;;;;2.38;1.60;;;10.80;73.50;;;6.04;100.00;93067.03;4984126;28;20049;-53
2024/01/18 05:57:16;;;;;;;1.75;1.10;;;10.80;73.50;;;6.02;100.00;93066.56;4982869;28;20030;-53
2024/01/18 05:59:42;;;;;;;1.60;1.50;;;10.70;73.50;;;6.00;100.00;93058.94;4977888;28;20498;-57
2024/01/18 06:02:09;;;;;;;2.05;1.63;;;10.80;73.50;;;5.91;100.00;93065.19;4977188;28;20061;-58
2024/01/18 06:04:35;;;;;;;1.90;1.60;;;10.70;73.30;;;5.79;100.00;93063.81;4958723;28;20026;-54
2024/01/18 06:07:01;;;;;;;3.30;2.20;;;10.70;73.20;;;5.74;100.00;93071.84;4974509;28;20047;-57
2024/01/18 06:09:27;;;;;;;6.00;4.15;;;10.70;73.10;;;5.71;100.00;93075.09;4981133;28;20049;-54
2024/01/18 06:11:53;;;;;;;5.40;2.70;;;10.60;73.00;;;5.71;100.00;93074.31;4979208;28;20132;-52
2024/01/18 06:14:18;;;;;;;6.35;2.80;;;10.50;73.00;;;5.69;100.00;93076.47;4978108;28;20033;-54
2024/01/18 06:16:44;;;;;;;10.75;7.20;;;10.60;73.20;;;5.70;100.00;93072.72;4979990;28;20113;-56
2024/01/18 06:19:11;;;;;;;3.70;3.13;;;10.50;73.20;;;5.67;100.00;93079.41;4975476;28;20175;-54
2024/01/18 06:21:38;;;;;;;2.80;2.20;;;10.50;73.30;;;5.63;100.00;93081.03;4976723;28;20030;-55
2024/01/18 06:24:04;;;;;;;2.55;2.10;;;10.50;73.30;;;5.57;100.00;93093.56;4972233;28;20030;-53
2024/01/18 06:26:30;;;;;;;2.95;1.98;;;10.50;73.30;;;5.58;100.00;93099.66;4971633;28;20056;-53
2024/01/18 06:28:56;;;;;;;2.58;1.80;;;10.50;73.30;;;5.54;100.00;93098.66;4974446;28;20050;-56
2024/01/18 06:31:26;;;;;;;3.53;2.28;;;10.50;73.30;;;5.54;100.00;93110.00;4977481;28;20068;-55
2024/01/18 06:33:53;;;;;;;5.43;2.13;;;10.40;73.30;;;5.53;100.00;93105.03;4968343;28;20057;-52
2024/01/18 06:36:19;;;;;;;1.65;1.52;;;10.40;73.30;;;5.52;100.00;93104.25;4979566;28;20014;-54
2024/01/18 06:38:45;;;;;;;2.60;1.73;;;10.40;73.40;;;5.49;100.00;93107.47;4965507;28;20030;-57
2024/01/18 06:41:11;;;;;;;3.40;2.20;;;10.40;73.40;;;5.48;100.00;93095.31;4978797;28;20079;-56
2024/01/18 06:43:38;;;;;;;4.68;2.10;;;10.40;73.50;;;5.52;100.00;93098.97;4974600;28;20026;-52
2024/01/18 06:46:04;;;;;;;3.10;1.60;;;10.40;73.60;;;5.53;100.00;93097.88;4979086;28;20124;-55
2024/01/18 06:48:30;;;;;;;3.97;1.88;;;10.30;73.80;;;5.60;100.00;93102.75;4972204;28;20034;-51
2024/01/18 06:50:55;;;;;;;4.95;2.72;;;10.30;74.10;;;5.68;100.00;93101.31;4979722;28;20085;-51
2024/01/18 06:53:21;;;;;;;4.43;2.10;;;10.30;74.30;;;5.71;100.00;93104.16;4976476;28;20017;-53
2024/01/18 06:55:47;;;;;;;3.67;2.20;;;10.30;74.40;;;5.72;100.00;93097.78;4963223;28;20022;-51
2024/01/18 06:58:13;;;;;;;4.85;2.20;;;10.30;74.50;;;5.74;100.00;93100.91;4981354;28;20030;-51
2024/01/18 07:00:39;;;;;;;3.00;1.77;;;10.30;74.70;;;5.77;100.00;93102.97;4974928;28;20014;-52
2024/01/18 07:03:07;;;;;;;3.83;1.42;;;10.30;74.70;;;5.80;100.00;93101.59;4978440;28;20452;-56
2024/01/18 07:05:33;;;;;;;2.13;1.27;;;10.30;74.80;;;5.84;100.00;93110.50;4974529;28;20030;-53
2024/01/18 07:07:59;;;;;;;5.28;1.67;;;10.30;74.90;;;5.86;100.00;93113.63;4976799;28;20038;-51
2024/01/18 07:10:25;;;;;;;1.58;1.20;;;10.30;75.00;;;5.87;100.00;93112.56;4973950;28;20018;-53
2024/01/18 07:12:51;;;;;;;2.17;1.30;;;10.30;75.00;;;5.90;100.00;93119.88;4978600;28;20033;-53
2024/01/18 07:15:18;;;;;;;4.07;1.35;;;10.40;75.10;;;5.93;100.00;93127.25;4976858;28;20025;-57
2024/01/18 07:17:44;;;;;;;1.50;1.13;;;10.40;75.20;;;5.95;100.00;93116.38;4955984;28;20063;-57
2024/01/18 07:20:10;;;;;;;1.13;1.02;;;10.40;75.30;;;5.96;100.00;93124.03;4977174;28;20476;-56
2024/01/18 07:22:36;;;;;;;1.52;1.10;;;10.40;75.30;;;5.95;100.00;93119.03;4974263;28;20465;-51
2024/01/18 07:25:04;;;;;;;3.45;1.58;;;10.40;75.20;;;5.97;100.00;93130.09;4978537;28;20041;-53
2024/01/18 07:27:30;;;;;;;1.80;1.02;;;10.40;75.30;;;5.98;100.00;93124.50;4973370;28;20168;-53
2024/01/18 07:29:56;;;;;;;3.40;1.10;;;10.50;75.40;;;6.03;100.00;93116.47;4976290;28;20101;-56
2024/01/18 07:32:23;;;;;;;3.30;0.90;;;10.50;75.40;;;6.08;100.00;93120.09;4973440;28;20026;-57
2024/01/18 07:34:49;;;;;;;1.17;0.90;;;10.50;76.30;;;6.13;100.00;93118.13;4977460;28;20034;-59
2024/01/18 07:37:14;;;;;;;1.02;0.90;;;10.60;75.50;;;6.16;100.00;93122.81;4977163;28;20026;-59
2024/01/18 07:39:41;;;;;;;2.85;0.93;;;10.60;75.50;;;6.18;100.00;93117.25;4975631;28;20022;-58
2024/01/18 07:42:08;;;;;;;1.30;1.17;;;10.70;75.50;;;6.22;100.00;93118.22;4978091;28;20167;-58
2024/01/18 07:44:35;;;;;;;1.15;1.05;;;10.80;75.50;;;6.23;100.00;93111.84;4972293;28;20436;-58
2024/01/18 07:47:01;;;;;;;3.10;1.25;;;10.80;75.40;;;6.23;100.00;93109.19;4978155;28;20058;-59
2024/01/18 07:49:26;;;;;;;2.45;1.10;;;10.80;75.20;;;6.19;100.00;93103.72;4978606;28;20056;-56
2024/01/18 07:51:53;;;;;;;2.78;1.10;;;10.80;75.10;;;6.22;100.00;93097.84;4975505;28;20532;-59
2024/01/18 07:54:18;;;;;;;1.85;0.98;;;10.90;75.10;;;6.25;100.00;93091.19;4975384;28;20056;-59
2024/01/18 07:56:44;;;;;;;1.13;0.90;;;10.90;75.00;;;6.30;100.00;93091.09;4979168;28;20026;-54
2024/01/18 07:59:10;;;;;;;2.38;0.80;;;10.90;75.00;;;6.31;100.00;93097.16;4974034;28;20022;-54
2024/01/18 08:01:37;;;;;;;2.88;1.00;;;11.00;75.00;;;6.31;100.00;93105.09;4975894;28;20045;-53
2024/01/18 08:04:03;;;;;;;3.42;1.00;;;11.10;75.00;;;6.35;100.00;93100.75;4961981;28;20068;-57
2024/01/18 08:06:29;;;;;;;2.60;1.10;;;11.10;74.90;;;6.39;100.00;93101.72;4956181;28;20124;-57
2024/01/18 08:08:55;;;;;;;7.03;1.20;;;11.10;74.90;;;6.39;100.00;93105.16;4976433;28;20037;-59
2024/01/18 08:11:21;;;;;;;1.25;0.95;;;11.10;74.90;;;6.42;100.00;93104.53;4982683;28;20030;-56
2024/01/18 08:13:47;;;;;;;1.02;0.88;;;11.10;74.80;;;6.45;100.00;93108.47;4972528;28;20724;-55
2024/01/18 08:16:13;;;;;;;1.85;1.23;;;11.20;74.80;;;6.40;100.00;93112.00;4987702;28;20388;-58
2024/01/18 08:18:39;;;;;;;1.90;1.40;;;11.20;74.80;;;6.51;100.00;93106.50;4965666;28;20057;-58
2024/01/18 08:21:05;;;;;;;2.40;1.20;;;11.30;74.80;;;6.59;100.00;93108.44;4984351;28;20022;-57
2024/01/18 08:23:31;;;;;;;1.40;0.85;;;11.40;74.90;;;6.65;100.00;93100.06;4982298;28;20061;-57
2024/01/18 08:25:57;;;;;;;2.35;1.30;;;11.50;74.80;;;6.69;100.00;93106.31;4978813;28;20060;-54
2024/01/18 08:28:23;;;;;;;2.17;1.10;;;11.60;74.60;;;6.78;100.00;93114.34;4979073;28;20116;-54
2024/01/18 08:30:49;;;;;;;1.67;1.00;;;11.60;74.60;;;6.78;100.00;93111.69;4982026;28;20527;-57
2024/01/18 08:33:16;;;;;;;2.42;1.10;;;11.70;74.40;;;6.83;100.00;93113.41;4976603;28;20112;-53
2024/01/18 08:35:42;;;;;;;4.10;1.38;;;11.80;74.30;;;6.82;100.00;93117.16;4974953;28;20057;-52
2024/01/18 08:38:08;;;;;;;3.63;1.17;;;11.80;74.20;;;6.87;100.00;93112.53;4973178;28;20025;-56
2024/01/18 08:40:34;;;;;;;2.95;1.30;;;11.90;74.10;;;6.91;100.00;93115.34;4978275;28;20056;-56
2024/01/18 08:43:01;;;;;;;1.67;1.13;;;11.90;74.00;;;6.94;100.00;93114.75;4978239;28;20380;-53
2024/01/18 08:45:29;;;;;;;2.42;0.90;;;11.90;73.90;;;7.00;100.00;93112.78;4975674;28;20042;-54
2024/01/18 08:47:55;;;;;;;2.80;1.00;;;11.90;73.80;;;7.02;100.00;93108.75;4977087;28;20042;-56
2024/01/18 08:50:23;;;;;;;2.22;1.10;;;11.90;73.70;;;7.05;100.00;93104.69;4979164;28;20433;-54
2024/01/18 08:52:52;;;;;;;2.15;0.80;;;12.00;73.70;;;7.06;100.00;93107.06;4986079;28;20109;-55
2024/01/18 08:55:19;;;;;;;1.88;0.90;;;12.10;73.70;;;7.13;100.00;93114.56;4980462;28;20056;-57
2024/01/18 08:57:46;;;;;;;2.10;0.90;;;12.20;73.60;;;7.23;100.00;93116.16;4968579;28;20028;-52
2024/01/18 09:00:17;;;;;;;2.78;0.90;;;12.30;73.60;;;7.28;100.00;93124.00;4975275;28;20030;-53
2024/01/18 09:02:45;;;;;;;1.45;0.90;;;12.30;73.40;;;7.33;100.00;93129.16;4982340;28;20863;-52
2024/01/18 09:05:11;;;;;;;1.55;1.08;;;12.30;73.30;;;7.32;100.00;93127.59;4978247;28;20053;-55
2024/01/18 09:07:36;;;;;;;1.98;1.17;;;12.40;73.30;;;7.36;100.00;93136.50;4979241;28;20112;-56
2024/01/18 09:10:04;;;;;;;1.83;1.10;;;12.30;73.10;;;7.29;100.00;93133.50;4979447;28;20898;-52
2024/01/18 09:12:30;;;;;;;1.10;1.00;;;12.30;73.00;;;7.30;100.00;93121.81;4980004;28;20037;-52
2024/01/18 09:14:56;;;;;;;1.15;0.98;;;12.30;73.00;;;7.27;100.00;93112.63;4978994;28;20026;-51
2024/01/18 09:17:22;;;;;;;1.17;0.93;;;12.30;73.70;;;7.24;100.00;93133.63;4983817;28;20125;-51
2024/01/18 09:19:48;;;;;;;1.38;0.77;;;12.30;73.00;;;7.23;100.00;93129.41;4971263;28;20026;-55
2024/01/18 09:22:15;;;;;;;1.45;0.88;;;12.30;72.90;;;7.35;100.00;93122.47;4984615;28;20034;-53
2024/01/18 09:24:42;;;;;;;0.93;0.85;;;12.40;72.90;;;7.41;100.00;93129.19;4972197;28;20025;-55
2024/01/18 09:27:11;;;;;;;1.98;1.42;;;12.40;72.90;;;7.45;100.00;93134.66;4981680;28;20061;-51
2024/01/18 09:29:37;;;;;;;1.52;1.00;;;12.50;72.80;;;7.52;100.00;93136.88;4984428;28;20392;-53
2024/01/18 09:32:06;;;;;;;1.00;0.90;;;12.50;72.70;;;7.58;100.00;93147.06;4976050;28;20037;-52
2024/01/18 09:34:33;;;;;;;5.30;0.88;;;12.60;72.60;;;7.60;100.00;93152.81;4980135;28;20473;-55
2024/01/18 09:36:59;;;;;;;1.80;0.70;;;12.60;72.60;;;7.60;100.00;93162.66;4974028;28;20034;-53
2024/01/18 09:39:25;;;;;;;0.57;0.55;;;12.60;72.60;;;7.67;100.00;93173.59;4981013;28;20388;-54
2024/01/18 09:41:55;;;;;;;0.50;0.50;;;12.60;72.50;;;7.72;100.00;93157.56;4976150;28;20473;-52
2024/01/18 09:44:30;;;;;;;1.58;0.57;;;12.60;72.50;;;7.78;100.00;93168.81;4973322;28;20064;-54
2024/01/18 09:46:59;;;;;;;2.97;0.70;;;12.50;72.40;;;7.87;100.00;93167.00;4961981;28;20096;-52
2024/01/18 09:49:27;;;;;;;0.98;0.60;;;12.50;72.50;;;7.84;100.00;93186.94;4970933;28;20097;-52
2024/01/18 09:51:57;;;;;;;0.77;0.50;;;12.50;72.60;;;7.86;100.00;93176.78;4974884;28;20412;-52
2024/01/18 09:54:24;;;;;;;2.05;0.50;;;12.50;72.50;;;7.80;100.00;93164.78;4979466;28;20026;-51
2024/01/18 09:56:53;;;;;;;2.35;0.60;;;12.50;72.50;;;7.89;100.00;93178.06;4971679;28;20036;-56
2024/01/18 09:59:22;;;;;;;0.85;0.60;;;12.50;72.40;;;7.97;100.00;93177.31;4969762;28;20025;-51
2024/01/18 10:01:48;;;;;;;2.13;0.90;;;12.60;72.40;;;7.96;100.00;93170.47;4972307;28;20037;-55
2024/01/18 10:04:19;;;;;;;2.72;1.00;;;12.60;73.10;;;7.92;100.00;93180.09;4978816;28;20021;-56
2024/01/18 10:06:45;;;;;;;0.73;0.70;;;12.60;72.30;;;7.81;100.00;93187.53;4972572;28;20033;-56
2024/01/18 10:09:15;;;;;;;1.33;0.80;;;12.60;72.30;;;7.88;100.00;93187.09;4974540;28;20026;-56
2024/01/18 10:11:44;;;;;;;1.65;0.70;;;12.60;72.90;;;7.86;100.00;93191.91;4961413;28;20037;-51
2024/01/18 10:14:10;;;;;;;0.93;0.70;;;12.70;72.20;;;7.85;100.00;93185.84;4975055;28;20426;-51
2024/01/18 10:16:38;;;;;;;2.55;0.90;;;12.70;72.10;;;7.84;100.00;93181.63;4976581;28;20033;-57